createdAt,value
2018-07-12T00:01:14.585Z,14.90
2018-07-12T00:03:41.139Z,14.80
2018-07-12T00:06:07.549Z,14.90
2018-07-12T00:08:33.942Z,14.90
2018-07-12T00:11:00.325Z,14.60
2018-07-12T00:13:26.710Z,14.60
2018-07-12T00:18:19.952Z,14.60
2018-07-12T00:20:46.617Z,14.70
2018-07-12T00:23:13.017Z,14.60
2018-07-12T00:25:39.434Z,14.40
2018-07-12T00:28:05.982Z,14.60
2018-07-12T00:30:32.363Z,14.60
2018-07-12T00:32:58.786Z,14.50
2018-07-12T00:35:25.114Z,14.60
2018-07-12T00:37:51.648Z,14.60
2018-07-12T00:40:18.292Z,14.60
2018-07-12T00:42:44.700Z,14.60
2018-07-12T00:45:11.076Z,14.60
2018-07-12T00:47:37.795Z,14.60
2018-07-12T00:50:04.399Z,14.60
2018-07-12T00:52:30.899Z,14.50
2018-07-12T00:54:57.305Z,14.50
2018-07-12T00:57:23.717Z,14.50
2018-07-12T00:59:50.099Z,14.60
2018-07-12T01:02:16.507Z,14.50
2018-07-12T01:04:42.823Z,14.50
2018-07-12T01:07:09.191Z,14.50
2018-07-12T01:09:35.635Z,14.50
2018-07-12T01:12:02.067Z,14.40
2018-07-12T01:14:28.379Z,14.40
2018-07-12T01:16:54.794Z,14.40
2018-07-12T01:19:21.222Z,14.40
2018-07-12T01:21:47.597Z,14.60
2018-07-12T01:24:13.948Z,14.50
2018-07-12T01:26:40.323Z,14.60
2018-07-12T01:29:06.651Z,14.50
2018-07-12T01:31:33.019Z,14.50
2018-07-12T01:33:59.383Z,14.50
2018-07-12T01:36:25.747Z,14.60
2018-07-12T01:38:52.066Z,14.60
2018-07-12T01:41:18.436Z,14.60
2018-07-12T01:43:44.778Z,14.50
2018-07-12T01:46:11.172Z,14.50
2018-07-12T01:48:37.566Z,14.50
2018-07-12T01:51:03.934Z,14.50
2018-07-12T01:53:30.314Z,14.50
2018-07-12T01:55:56.776Z,14.60
2018-07-12T01:58:23.200Z,14.60
2018-07-12T02:00:49.557Z,14.60
2018-07-12T02:03:16.213Z,14.60
2018-07-12T02:05:42.750Z,14.60
2018-07-12T02:08:09.310Z,14.50
2018-07-12T02:10:35.635Z,14.50
2018-07-12T02:13:01.940Z,14.50
2018-07-12T02:15:28.595Z,14.50
2018-07-12T02:17:55.209Z,14.60
2018-07-12T02:20:21.692Z,14.50
2018-07-12T02:22:48.103Z,14.50
2018-07-12T02:25:14.547Z,14.60
2018-07-12T02:27:41.001Z,14.60
2018-07-12T02:30:07.343Z,14.60
2018-07-12T02:32:33.761Z,14.60
2018-07-12T02:35:00.171Z,14.60
2018-07-12T02:37:26.566Z,14.50
2018-07-12T02:39:53.159Z,14.60
2018-07-12T02:42:19.584Z,14.50
2018-07-12T02:44:45.960Z,14.40
2018-07-12T02:47:12.342Z,14.40
2018-07-12T02:49:38.674Z,14.40
2018-07-12T02:52:05.365Z,14.40
2018-07-12T02:54:31.753Z,14.40
2018-07-12T02:56:58.174Z,14.40
2018-07-12T02:59:24.543Z,14.40
2018-07-12T03:01:50.933Z,14.50
2018-07-12T03:04:17.310Z,14.50
2018-07-12T03:06:43.646Z,14.60
2018-07-12T03:09:10.020Z,14.60
2018-07-12T03:11:36.622Z,14.50
2018-07-12T03:14:03.435Z,14.50
2018-07-12T03:16:29.961Z,14.50
2018-07-12T03:18:56.333Z,14.50
2018-07-12T03:21:22.702Z,14.50
2018-07-12T03:23:49.138Z,14.40
2018-07-12T03:26:15.553Z,14.50
2018-07-12T03:28:41.930Z,14.50
2018-07-12T03:31:08.320Z,14.50
2018-07-12T03:33:34.651Z,14.60
2018-07-12T03:36:01.074Z,14.60
2018-07-12T03:38:27.432Z,14.60
2018-07-12T03:40:53.846Z,14.60
2018-07-12T03:43:20.202Z,14.50
2018-07-12T03:45:46.574Z,14.70
2018-07-12T03:48:13.014Z,14.60
2018-07-12T03:50:39.393Z,14.60
2018-07-12T03:53:05.852Z,14.60
2018-07-12T03:55:32.193Z,14.60
2018-07-12T03:57:58.650Z,14.60
2018-07-12T04:00:24.995Z,14.70
2018-07-12T04:02:51.413Z,14.60
2018-07-12T04:05:17.917Z,14.70
2018-07-12T04:07:44.425Z,14.60
2018-07-12T04:10:10.781Z,14.70
2018-07-12T04:12:37.165Z,14.60
2018-07-12T04:15:03.589Z,14.60
2018-07-12T04:17:31.019Z,14.70
2018-07-12T04:19:58.511Z,14.80
2018-07-12T04:22:25.741Z,14.70
2018-07-12T04:24:52.116Z,14.60
2018-07-12T04:27:19.312Z,14.50
2018-07-12T04:29:45.816Z,14.40
2018-07-12T04:32:12.205Z,14.50
2018-07-12T04:34:40.868Z,14.50
2018-07-12T04:37:07.222Z,14.60
2018-07-12T04:39:33.589Z,14.60
2018-07-12T04:41:59.959Z,14.60
2018-07-12T04:44:26.520Z,14.70
2018-07-12T04:46:52.995Z,14.80
2018-07-12T04:49:20.166Z,14.70
2018-07-12T04:51:46.546Z,14.70
2018-07-12T04:54:12.918Z,14.80
2018-07-12T04:56:39.247Z,14.80
2018-07-12T04:59:05.583Z,14.90
2018-07-12T05:01:32.045Z,14.90
2018-07-12T05:03:58.423Z,15.10
2018-07-12T05:06:24.802Z,15.20
2018-07-12T05:08:51.114Z,15.20
2018-07-12T05:11:17.519Z,15.20
2018-07-12T05:13:43.875Z,15.20
2018-07-12T05:16:10.292Z,15.30
2018-07-12T05:18:36.621Z,15.30
2018-07-12T05:21:02.954Z,15.40
2018-07-12T05:23:29.269Z,15.40
2018-07-12T05:25:55.654Z,15.50
2018-07-12T05:28:22.030Z,15.60
2018-07-12T05:30:48.479Z,15.70
2018-07-12T05:33:14.926Z,15.60
2018-07-12T05:35:42.361Z,15.60
2018-07-12T05:38:10.406Z,15.70
2018-07-12T05:40:37.896Z,15.80
2018-07-12T05:43:05.291Z,15.90
2018-07-12T05:45:33.214Z,15.90
2018-07-12T05:48:00.508Z,15.90
2018-07-12T05:50:27.916Z,15.90
2018-07-12T05:52:55.426Z,15.90
2018-07-12T05:55:22.890Z,15.90
2018-07-12T05:57:50.214Z,15.90
2018-07-12T06:00:17.822Z,16.00
2018-07-12T06:02:45.707Z,16.00
2018-07-12T06:05:13.089Z,16.00
2018-07-12T06:07:40.421Z,16.00
2018-07-12T06:10:07.804Z,16.00
2018-07-12T06:12:35.302Z,16.10
2018-07-12T06:15:02.686Z,16.10
2018-07-12T06:17:30.116Z,16.10
2018-07-12T06:19:57.510Z,16.20
2018-07-12T06:22:24.872Z,16.30
2018-07-12T06:24:52.570Z,16.20
2018-07-12T06:27:19.989Z,16.20
2018-07-12T06:29:47.513Z,16.30
2018-07-12T06:32:14.937Z,16.40
2018-07-12T06:34:42.380Z,16.30
2018-07-12T06:37:09.816Z,16.40
2018-07-12T06:39:37.188Z,16.30
2018-07-12T06:42:04.777Z,16.50
2018-07-12T06:44:32.232Z,16.60
2018-07-12T06:46:59.629Z,16.60
2018-07-12T06:49:27.098Z,16.50
2018-07-12T06:51:54.612Z,16.70
2018-07-12T06:54:21.961Z,16.70
2018-07-12T06:56:49.393Z,16.70
2018-07-12T06:59:16.872Z,16.50
2018-07-12T07:01:44.313Z,16.50
2018-07-12T07:04:11.745Z,16.50
2018-07-12T07:06:39.149Z,16.60
2018-07-12T07:09:08.107Z,16.40
2018-07-12T07:11:35.589Z,16.50
2018-07-12T07:14:03.226Z,16.60
2018-07-12T07:16:30.658Z,16.60
2018-07-12T07:18:58.022Z,16.60
2018-07-12T07:21:25.405Z,16.60
2018-07-12T07:23:52.809Z,16.70
2018-07-12T07:26:20.236Z,16.70
2018-07-12T07:28:47.646Z,16.70
2018-07-12T07:31:15.026Z,16.70
2018-07-12T07:33:42.498Z,16.70
2018-07-12T07:36:09.983Z,16.80
2018-07-12T07:38:37.312Z,16.90
2018-07-12T07:41:05.077Z,17.00
2018-07-12T07:43:32.465Z,17.20
2018-07-12T07:45:59.862Z,17.40
2018-07-12T07:48:27.292Z,17.40
2018-07-12T07:50:54.581Z,17.30
2018-07-12T07:53:22.034Z,17.30
2018-07-12T07:55:49.501Z,17.20
2018-07-12T07:58:16.857Z,17.10
2018-07-12T08:00:44.523Z,17.10
2018-07-12T08:03:11.893Z,17.40
2018-07-12T08:05:39.299Z,17.80
2018-07-12T08:08:06.707Z,18.30
2018-07-12T08:10:35.383Z,18.40
2018-07-12T08:13:04.061Z,18.40
2018-07-12T08:15:31.375Z,18.10
2018-07-12T08:17:58.777Z,18.00
2018-07-12T08:20:26.129Z,18.00
2018-07-12T08:22:53.421Z,18.20
2018-07-12T08:25:20.738Z,18.10
2018-07-12T08:27:59.595Z,18.00
2018-07-12T08:30:26.910Z,18.30
2018-07-12T08:32:55.613Z,18.70
2018-07-12T08:35:23.007Z,19.20
2018-07-12T08:37:50.877Z,19.30
2018-07-12T08:40:18.227Z,19.60
2018-07-12T08:42:45.628Z,19.80
2018-07-12T08:45:13.028Z,19.70
2018-07-12T08:47:40.456Z,19.60
2018-07-12T08:50:07.939Z,19.40
2018-07-12T08:52:35.389Z,19.20
2018-07-12T08:55:02.856Z,19.10
2018-07-12T08:57:30.320Z,19.20
2018-07-12T08:59:57.834Z,19.30
2018-07-12T09:02:25.277Z,19.40
2018-07-12T09:04:53.115Z,19.40
2018-07-12T09:07:20.504Z,19.50
2018-07-12T09:09:47.866Z,19.80
2018-07-12T09:12:15.162Z,19.70
2018-07-12T09:14:42.734Z,20.00
2018-07-12T09:17:10.205Z,20.50
2018-07-12T09:19:37.563Z,20.30
2018-07-12T09:22:05.017Z,20.20
2018-07-12T09:24:32.417Z,20.00
2018-07-12T09:26:59.805Z,19.80
2018-07-12T09:29:27.195Z,19.70
2018-07-12T09:31:55.237Z,19.50
2018-07-12T09:34:22.711Z,19.50
2018-07-12T09:36:50.105Z,19.80
2018-07-12T09:39:17.501Z,20.20
2018-07-12T09:41:44.888Z,20.60
2018-07-12T09:44:12.232Z,21.00
2018-07-12T09:46:39.590Z,21.40
2018-07-12T09:49:07.040Z,21.40
2018-07-12T09:51:34.446Z,21.20
2018-07-12T09:54:01.902Z,21.30
2018-07-12T09:56:40.975Z,20.90
2018-07-12T09:59:08.504Z,20.80
2018-07-12T10:01:41.690Z,20.90
2018-07-12T10:04:09.135Z,21.20
2018-07-12T10:06:42.137Z,21.60
2018-07-12T10:09:15.310Z,22.00
2018-07-12T10:11:48.398Z,22.20
2018-07-12T10:14:21.625Z,22.00
2018-07-12T10:16:54.814Z,21.50
2018-07-12T10:19:22.239Z,21.60
2018-07-12T10:21:49.541Z,21.20
2018-07-12T10:24:16.864Z,21.30
2018-07-12T10:29:11.607Z,20.70
2018-07-12T10:31:38.961Z,21.00
2018-07-12T10:34:06.323Z,21.20
2018-07-12T10:36:33.769Z,20.90
2018-07-12T10:39:01.229Z,20.90
2018-07-12T10:41:28.641Z,20.80
2018-07-12T10:43:56.066Z,21.00
2018-07-12T10:46:23.417Z,21.10
2018-07-12T10:48:53.195Z,21.00
2018-07-12T10:51:20.682Z,21.20
2018-07-12T10:53:48.083Z,21.70
2018-07-12T10:56:15.493Z,21.30
2018-07-12T10:58:42.881Z,21.60
2018-07-12T11:01:10.330Z,21.70
2018-07-12T11:03:37.770Z,21.70
2018-07-12T11:06:05.234Z,22.00
2018-07-12T11:08:32.631Z,22.40
2018-07-12T11:10:59.930Z,22.80
2018-07-12T11:13:38.730Z,23.10
2018-07-12T11:16:06.218Z,23.10
2018-07-12T11:18:33.682Z,22.90
2018-07-12T11:21:01.081Z,22.40
2018-07-12T11:23:28.458Z,22.30
2018-07-12T11:25:55.852Z,22.30
2018-07-12T11:28:23.230Z,22.10
2018-07-12T11:30:50.595Z,21.90
2018-07-12T11:33:33.324Z,21.80
2018-07-12T11:36:00.706Z,21.80
2018-07-12T11:38:28.127Z,22.00
2018-07-12T11:40:55.538Z,22.40
2018-07-12T11:43:22.890Z,22.50
2018-07-12T11:45:50.290Z,22.20
2018-07-12T11:48:17.715Z,22.00
2018-07-12T11:50:45.239Z,22.00
2018-07-12T11:53:12.616Z,22.30
2018-07-12T11:55:40.069Z,22.60
2018-07-12T11:58:07.730Z,22.20
2018-07-12T12:00:35.176Z,22.60
2018-07-12T12:03:02.549Z,22.90
2018-07-12T12:05:29.889Z,23.00
2018-07-12T12:07:57.292Z,23.10
2018-07-12T12:10:24.686Z,22.90
2018-07-12T12:12:52.150Z,23.10
2018-07-12T12:15:20.221Z,23.40
2018-07-12T12:17:47.960Z,23.50
2018-07-12T12:20:15.386Z,23.60
2018-07-12T12:22:42.778Z,23.50
2018-07-12T12:25:10.189Z,23.10
2018-07-12T12:27:37.597Z,23.00
2018-07-12T12:30:05.067Z,23.40
2018-07-12T12:32:32.470Z,23.60
2018-07-12T12:34:59.916Z,23.80
2018-07-12T12:37:27.300Z,24.10
2018-07-12T12:39:54.681Z,24.50
2018-07-12T12:42:22.142Z,24.50
2018-07-12T12:44:49.541Z,24.30
2018-07-12T12:47:16.964Z,24.10
2018-07-12T12:49:44.371Z,24.00
2018-07-12T12:52:11.794Z,24.10
2018-07-12T12:54:39.227Z,24.30
2018-07-12T12:57:06.571Z,24.10
2018-07-12T12:59:33.946Z,23.80
2018-07-12T13:02:01.302Z,23.90
2018-07-12T13:04:28.704Z,23.80
2018-07-12T13:06:56.198Z,24.10
2018-07-12T13:09:23.574Z,24.20
2018-07-12T13:11:51.035Z,24.40
2018-07-12T13:14:18.504Z,24.60
2018-07-12T13:16:45.961Z,24.90
2018-07-12T13:19:13.427Z,24.90
2018-07-12T13:21:40.985Z,24.90
2018-07-12T13:24:08.373Z,24.70
2018-07-12T13:26:35.791Z,25.10
2018-07-12T13:29:03.357Z,25.50
2018-07-12T13:31:33.592Z,25.60
2018-07-12T13:34:01.089Z,25.70
2018-07-12T13:36:28.521Z,25.70
2018-07-12T13:38:55.985Z,25.60
2018-07-12T13:41:23.472Z,25.70
2018-07-12T13:44:01.182Z,25.80
2018-07-12T13:46:28.591Z,25.80
2018-07-12T13:48:56.005Z,25.50
2018-07-12T13:51:23.491Z,25.60
2018-07-12T13:53:53.531Z,25.90
2018-07-12T13:56:20.954Z,26.00
2018-07-12T13:58:48.515Z,26.10
2018-07-12T14:01:17.019Z,26.00
2018-07-12T14:03:44.469Z,25.50
2018-07-12T14:06:11.863Z,25.30
2018-07-12T14:08:39.231Z,25.10
2018-07-12T14:11:06.643Z,24.90
2018-07-12T14:13:34.110Z,24.90
2018-07-12T14:18:28.834Z,24.60
2018-07-12T14:20:56.269Z,24.70
2018-07-12T14:23:23.667Z,24.80
2018-07-12T14:25:51.121Z,24.30
2018-07-12T14:28:18.623Z,24.50
2018-07-12T14:30:46.003Z,24.60
2018-07-12T14:33:13.354Z,25.00
2018-07-12T14:35:40.864Z,24.90
2018-07-12T14:38:08.338Z,24.60
2018-07-12T14:40:35.726Z,24.50
2018-07-12T14:43:03.062Z,24.70
2018-07-12T14:45:30.480Z,24.40
2018-07-12T14:47:58.007Z,24.40
2018-07-12T14:50:26.228Z,24.50
2018-07-12T14:52:53.686Z,24.80
2018-07-12T14:55:21.046Z,24.40
2018-07-12T14:57:49.809Z,24.40
2018-07-12T15:00:17.174Z,24.60
2018-07-12T15:02:44.685Z,24.90
2018-07-12T15:05:12.051Z,25.00
2018-07-12T15:07:39.422Z,24.80
2018-07-12T15:10:06.910Z,24.50
2018-07-12T15:12:34.344Z,24.50
2018-07-12T15:15:01.754Z,24.60
2018-07-12T15:17:29.126Z,24.50
2018-07-12T15:19:56.573Z,24.30
2018-07-12T15:22:23.992Z,24.20
2018-07-12T15:24:51.393Z,24.10
2018-07-12T15:29:46.291Z,23.80
2018-07-12T15:32:13.672Z,24.00
2018-07-12T15:34:41.083Z,24.10
2018-07-12T15:37:08.618Z,24.00
2018-07-12T15:39:35.950Z,24.10
2018-07-12T15:42:03.354Z,24.20
2018-07-12T15:44:30.794Z,24.20
2018-07-12T15:46:58.271Z,24.20
2018-07-12T15:49:25.667Z,24.20
2018-07-12T15:51:53.078Z,24.20
2018-07-12T15:54:21.702Z,24.20
2018-07-12T15:56:51.322Z,24.20
2018-07-12T15:59:19.841Z,24.10
2018-07-12T16:01:48.087Z,23.90
2018-07-12T16:04:15.491Z,24.00
2018-07-12T16:06:42.916Z,23.90
2018-07-12T16:09:10.411Z,24.00
2018-07-12T16:11:38.255Z,23.80
2018-07-12T16:14:05.579Z,23.80
2018-07-12T16:16:36.058Z,23.90
2018-07-12T16:19:03.569Z,23.90
2018-07-12T16:21:31.011Z,23.90
2018-07-12T16:23:58.389Z,23.80
2018-07-12T16:26:25.753Z,23.70
2018-07-12T16:28:53.110Z,23.70
2018-07-12T16:31:20.495Z,23.80
2018-07-12T16:33:47.883Z,23.90
2018-07-12T16:36:15.275Z,23.80
2018-07-12T16:38:42.674Z,23.90
2018-07-12T16:41:10.097Z,23.90
2018-07-12T16:43:37.497Z,23.90
2018-07-12T16:46:04.883Z,23.70
2018-07-12T16:48:32.341Z,23.70
2018-07-12T16:50:59.879Z,23.70
2018-07-12T16:53:27.495Z,23.60
2018-07-12T16:55:55.986Z,23.60
2018-07-12T16:58:23.339Z,23.60
2018-07-12T17:00:50.739Z,23.60
2018-07-12T17:03:18.105Z,23.60
2018-07-12T17:05:45.537Z,23.60
2018-07-12T17:08:13.035Z,23.60
2018-07-12T17:10:40.461Z,23.60
2018-07-12T17:13:07.985Z,23.60
2018-07-12T17:15:35.418Z,23.60
2018-07-12T17:18:02.821Z,23.60
2018-07-12T17:20:30.343Z,23.40
2018-07-12T17:22:57.841Z,23.40
2018-07-12T17:25:27.692Z,23.30
2018-07-12T17:27:55.175Z,23.20
2018-07-12T17:30:22.599Z,23.20
2018-07-12T17:32:50.013Z,23.20
2018-07-12T17:35:17.402Z,23.20
2018-07-12T17:37:46.479Z,23.20
2018-07-12T17:40:14.522Z,23.20
2018-07-12T17:42:41.908Z,23.00
2018-07-12T17:47:36.634Z,23.10
2018-07-12T17:50:05.571Z,23.20
2018-07-12T17:52:33.134Z,23.20
2018-07-12T17:55:01.562Z,23.20
2018-07-12T17:57:28.987Z,23.20
2018-07-12T17:59:56.497Z,23.20
2018-07-12T18:02:23.919Z,23.20
2018-07-12T18:04:51.411Z,23.20
2018-07-12T18:07:18.842Z,23.20
2018-07-12T18:09:46.303Z,23.20
2018-07-12T18:12:14.506Z,23.20
2018-07-12T18:14:42.390Z,23.20
2018-07-12T18:17:09.866Z,23.10
2018-07-12T18:19:37.333Z,23.00
2018-07-12T18:24:32.430Z,22.90
2018-07-12T18:26:59.899Z,22.90
2018-07-12T18:29:27.367Z,22.90
2018-07-12T18:31:54.754Z,22.80
2018-07-12T18:34:22.216Z,22.70
2018-07-12T18:36:49.630Z,22.70
2018-07-12T18:39:17.098Z,22.60
2018-07-12T18:41:44.576Z,22.60
2018-07-12T18:44:12.067Z,22.50
2018-07-12T18:46:39.578Z,22.50
2018-07-12T18:49:07.010Z,22.40
2018-07-12T18:51:34.438Z,22.40
2018-07-12T18:54:01.842Z,22.40
2018-07-12T18:58:56.671Z,22.20
2018-07-12T19:01:24.149Z,22.20
2018-07-12T19:03:51.584Z,22.10
2018-07-12T19:06:19.001Z,22.00
2018-07-12T19:08:46.448Z,21.90
2018-07-12T19:11:13.830Z,21.90
2018-07-12T19:13:41.242Z,21.80
2018-07-12T19:16:08.710Z,21.80
2018-07-12T19:18:36.163Z,21.80
2018-07-12T19:21:03.569Z,21.70
2018-07-12T19:23:30.952Z,21.70
2018-07-12T19:25:58.422Z,21.60
2018-07-12T19:28:25.905Z,21.60
2018-07-12T19:30:53.308Z,21.60
2018-07-12T19:33:20.679Z,21.60
2018-07-12T19:35:48.162Z,21.60
2018-07-12T19:38:15.482Z,21.50
2018-07-12T19:40:42.974Z,21.50
2018-07-12T19:43:10.324Z,21.50
2018-07-12T19:45:37.750Z,21.50
2018-07-12T19:48:05.522Z,21.50
2018-07-12T19:50:33.008Z,21.60
2018-07-12T19:53:00.485Z,21.50
2018-07-12T19:55:28.564Z,21.50
2018-07-12T19:57:56.015Z,21.50
2018-07-12T20:00:23.509Z,21.40
2018-07-12T20:02:50.887Z,21.40
2018-07-12T20:05:18.275Z,21.40
2018-07-12T20:07:45.766Z,21.40
2018-07-12T20:10:13.212Z,21.40
2018-07-12T20:15:08.021Z,21.40
2018-07-12T20:17:35.427Z,21.40
2018-07-12T20:20:02.933Z,21.30
2018-07-12T20:22:30.501Z,21.30
2018-07-12T20:24:58.001Z,21.30
2018-07-12T20:27:25.458Z,21.30
2018-07-12T20:29:52.895Z,21.20
2018-07-12T20:32:20.474Z,21.20
2018-07-12T20:34:47.851Z,21.20
2018-07-12T20:37:16.129Z,21.30
2018-07-12T20:39:43.691Z,21.30
2018-07-12T20:42:11.207Z,21.30
2018-07-12T20:44:38.682Z,21.20
2018-07-12T20:47:06.207Z,21.20
2018-07-12T20:49:33.836Z,21.10
2018-07-12T20:52:01.331Z,21.10
2018-07-12T20:54:28.785Z,21.10
2018-07-12T20:56:56.298Z,21.10
2018-07-12T20:59:23.651Z,21.10
2018-07-12T21:01:51.132Z,21.00
2018-07-12T21:04:18.555Z,20.90
2018-07-12T21:06:45.995Z,20.90
2018-07-12T21:09:13.351Z,20.90
2018-07-12T21:11:40.762Z,20.90
2018-07-12T21:14:08.200Z,20.90
2018-07-12T21:16:35.804Z,20.90
2018-07-12T21:19:03.253Z,20.90
2018-07-12T21:21:30.702Z,20.80
2018-07-12T21:23:58.144Z,20.70
2018-07-12T21:26:25.559Z,20.70
2018-07-12T21:28:52.938Z,20.60
2018-07-12T21:31:20.296Z,20.50
2018-07-12T21:33:47.760Z,20.40
2018-07-12T21:36:15.209Z,20.30
2018-07-12T21:38:42.603Z,20.20
2018-07-12T21:41:10.054Z,20.10
2018-07-12T21:43:37.480Z,20.00
2018-07-12T21:46:05.411Z,20.00
2018-07-12T21:48:32.926Z,20.00
2018-07-12T21:51:00.427Z,20.00
2018-07-12T21:53:27.902Z,20.00
2018-07-12T21:55:55.506Z,19.90
2018-07-12T21:58:22.866Z,19.80
2018-07-12T22:00:50.298Z,19.80
2018-07-12T22:03:17.654Z,19.80
2018-07-12T22:05:44.992Z,19.90
2018-07-12T22:08:23.532Z,19.90
2018-07-12T22:10:52.216Z,19.80
2018-07-12T22:13:20.315Z,19.80
2018-07-12T22:15:47.671Z,19.80
2018-07-12T22:18:15.081Z,19.80
2018-07-12T22:20:42.511Z,19.80
2018-07-12T22:23:09.876Z,19.70
2018-07-12T22:25:37.485Z,19.60
2018-07-12T22:28:04.919Z,19.60
2018-07-12T22:30:32.377Z,19.60
2018-07-12T22:33:00.715Z,19.60
2018-07-12T22:35:28.153Z,19.60
2018-07-12T22:37:56.205Z,19.60
2018-07-12T22:40:23.619Z,19.60
2018-07-12T22:42:51.086Z,19.50
2018-07-12T22:45:18.503Z,19.60
2018-07-12T22:47:45.894Z,19.50
2018-07-12T22:50:13.438Z,19.50
2018-07-12T22:52:40.778Z,19.50
2018-07-12T22:55:08.167Z,19.60
2018-07-12T22:57:35.848Z,19.50
2018-07-12T23:00:03.591Z,19.50
2018-07-12T23:02:30.960Z,19.40
2018-07-12T23:04:58.679Z,19.40
2018-07-12T23:07:26.133Z,19.30
2018-07-12T23:09:53.643Z,19.30
2018-07-12T23:12:20.956Z,19.20
2018-07-12T23:14:48.358Z,19.10
2018-07-12T23:17:15.749Z,19.10
2018-07-12T23:19:43.262Z,18.90
2018-07-12T23:22:10.631Z,18.80
2018-07-12T23:24:38.131Z,18.80
2018-07-12T23:27:05.555Z,18.80
2018-07-12T23:29:33.300Z,18.70
2018-07-12T23:32:00.698Z,18.70
2018-07-12T23:34:28.208Z,18.60
2018-07-12T23:36:55.567Z,18.60
2018-07-12T23:39:23.020Z,18.50
2018-07-12T23:41:50.394Z,18.50
2018-07-12T23:44:17.788Z,18.40
2018-07-12T23:46:45.064Z,18.40
2018-07-12T23:49:12.406Z,18.40
2018-07-12T23:51:39.774Z,18.30
2018-07-12T23:54:07.348Z,18.10
2018-07-12T23:56:34.763Z,18.10
2018-07-12T23:59:02.188Z,18.10
